sensor_id;sensor_type;location;lat;lon;timestamp;temperature;humidity
16823;DHT22;8528;49.976;11.858;2022-10-31T00:01:28;5.90;99.90
16823;DHT22;8528;49.976;11.858;2022-10-31T00:03:56;5.80;99.90
16823;DHT22;8528;49.976;11.858;2022-10-31T00:06:23;5.80;99.90
16823;DHT22;8528;49.976;11.858;2022-10-31T00:08:56;5.80;99.90
16823;DHT22;8528;49.976;11.858;2022-10-31T00:11:24;5.80;99.90
16823;DHT22;8528;49.976;11.858;2022-10-31T00:13:51;5.80;99.90
16823;DHT22;8528;49.976;11.858;2022-10-31T00:16:20;5.80;99.90
16823;DHT22;8528;49.976;11.858;2022-10-31T00:18:48;5.70;99.90
16823;DHT22;8528;49.976;11.858;2022-10-31T00:21:16;5.70;99.90
16823;DHT22;8528;49.976;11.858;2022-10-31T00:23:43;5.70;99.90
16823;DHT22;8528;49.976;11.858;2022-10-31T00:26:10;5.70;99.90
16823;DHT22;8528;49.976;11.858;2022-10-31T00:28:37;5.70;99.90
16823;DHT22;8528;49.976;11.858;2022-10-31T00:31:08;5.70;99.90
16823;DHT22;8528;49.976;11.858;2022-10-31T00:33:39;5.60;99.90
16823;DHT22;8528;49.976;11.858;2022-10-31T00:36:07;5.60;99.90
16823;DHT22;8528;49.976;11.858;2022-10-31T00:38:34;5.60;99.90
16823;DHT22;8528;49.976;11.858;2022-10-31T00:41:01;5.60;99.90
16823;DHT22;8528;49.976;11.858;2022-10-31T00:43:28;5.50;99.90
16823;DHT22;8528;49.976;11.858;2022-10-31T00:45:54;5.50;99.90
16823;DHT22;8528;49.976;11.858;2022-10-31T00:48:21;5.60;99.90
16823;DHT22;8528;49.976;11.858;2022-10-31T00:50:48;5.60;99.90
16823;DHT22;8528;49.976;11.858;2022-10-31T00:53:18;5.60;99.90
16823;DHT22;8528;49.976;11.858;2022-10-31T00:55:45;5.60;99.90
16823;DHT22;8528;49.976;11.858;2022-10-31T00:58:12;5.60;99.90
16823;DHT22;8528;49.976;11.858;2022-10-31T01:00:40;5.60;99.90
16823;DHT22;8528;49.976;11.858;2022-10-31T01:03:07;5.50;99.90
16823;DHT22;8528;49.976;11.858;2022-10-31T01:05:34;5.50;99.90
16823;DHT22;8528;49.976;11.858;2022-10-31T01:08:01;5.50;99.90
16823;DHT22;8528;49.976;11.858;2022-10-31T01:10:27;5.50;99.90
16823;DHT22;8528;49.976;11.858;2022-10-31T01:12:54;5.50;99.90
16823;DHT22;8528;49.976;11.858;2022-10-31T01:15:22;5.50;99.90
16823;DHT22;8528;49.976;11.858;2022-10-31T01:17:50;5.40;99.90
16823;DHT22;8528;49.976;11.858;2022-10-31T01:20:17;5.40;99.90
16823;DHT22;8528;49.976;11.858;2022-10-31T01:22:44;5.40;99.90
16823;DHT22;8528;49.976;11.858;2022-10-31T01:25:11;5.40;99.90
16823;DHT22;8528;49.976;11.858;2022-10-31T01:27:38;5.40;99.90
16823;DHT22;8528;49.976;11.858;2022-10-31T01:30:05;5.30;99.90
16823;DHT22;8528;49.976;11.858;2022-10-31T01:32:33;5.40;99.90
16823;DHT22;8528;49.976;11.858;2022-10-31T01:35:00;5.40;99.90
16823;DHT22;8528;49.976;11.858;2022-10-31T01:37:26;5.50;99.90
16823;DHT22;8528;49.976;11.858;2022-10-31T01:39:53;5.50;99.90
16823;DHT22;8528;49.976;11.858;2022-10-31T01:42:22;5.50;99.90
16823;DHT22;8528;49.976;11.858;2022-10-31T01:44:58;5.50;99.90
16823;DHT22;8528;49.976;11.858;2022-10-31T01:47:34;5.40;99.90
16823;DHT22;8528;49.976;11.858;2022-10-31T01:50:06;5.30;99.90
16823;DHT22;8528;49.976;11.858;2022-10-31T01:52:44;5.30;99.90
16823;DHT22;8528;49.976;11.858;2022-10-31T01:55:34;5.20;99.90
16823;DHT22;8528;49.976;11.858;2022-10-31T01:58:06;5.20;99.90
16823;DHT22;8528;49.976;11.858;2022-10-31T02:00:35;5.20;99.90
16823;DHT22;8528;49.976;11.858;2022-10-31T02:03:02;5.20;99.90
16823;DHT22;8528;49.976;11.858;2022-10-31T02:05:30;5.30;99.90
16823;DHT22;8528;49.976;11.858;2022-10-31T02:11:05;5.30;99.90
16823;DHT22;8528;49.976;11.858;2022-10-31T02:13:34;5.30;99.90
16823;DHT22;8528;49.976;11.858;2022-10-31T02:16:01;5.30;99.90
16823;DHT22;8528;49.976;11.858;2022-10-31T02:18:30;5.30;99.90
16823;DHT22;8528;49.976;11.858;2022-10-31T02:27:07;5.20;99.90
16823;DHT22;8528;49.976;11.858;2022-10-31T02:35:13;5.20;99.90
16823;DHT22;8528;49.976;11.858;2022-10-31T02:40:33;5.20;99.90
16823;DHT22;8528;49.976;11.858;2022-10-31T02:43:04;5.20;99.90
16823;DHT22;8528;49.976;11.858;2022-10-31T02:45:58;5.20;99.90
16823;DHT22;8528;49.976;11.858;2022-10-31T02:48:28;5.10;99.90
16823;DHT22;8528;49.976;11.858;2022-10-31T02:51:01;5.10;99.90
16823;DHT22;8528;49.976;11.858;2022-10-31T02:53:34;5.10;99.90
16823;DHT22;8528;49.976;11.858;2022-10-31T02:56:06;5.00;99.90
16823;DHT22;8528;49.976;11.858;2022-10-31T02:58:39;5.10;99.90
16823;DHT22;8528;49.976;11.858;2022-10-31T03:01:22;5.10;99.90
16823;DHT22;8528;49.976;11.858;2022-10-31T03:12:09;5.00;99.90
16823;DHT22;8528;49.976;11.858;2022-10-31T03:14:46;5.00;99.90
16823;DHT22;8528;49.976;11.858;2022-10-31T03:17:32;4.90;99.90
16823;DHT22;8528;49.976;11.858;2022-10-31T03:20:03;4.90;99.90
16823;DHT22;8528;49.976;11.858;2022-10-31T03:22:35;4.90;99.90
16823;DHT22;8528;49.976;11.858;2022-10-31T03:25:06;5.00;99.90
16823;DHT22;8528;49.976;11.858;2022-10-31T03:27:36;5.00;99.90
16823;DHT22;8528;49.976;11.858;2022-10-31T03:30:05;5.00;99.90
16823;DHT22;8528;49.976;11.858;2022-10-31T03:32:36;4.90;99.90
16823;DHT22;8528;49.976;11.858;2022-10-31T03:35:06;4.90;99.90
16823;DHT22;8528;49.976;11.858;2022-10-31T03:37:37;4.90;99.90
16823;DHT22;8528;49.976;11.858;2022-10-31T03:40:09;4.90;99.90
16823;DHT22;8528;49.976;11.858;2022-10-31T03:42:41;4.90;99.90
16823;DHT22;8528;49.976;11.858;2022-10-31T03:45:24;4.90;99.90
16823;DHT22;8528;49.976;11.858;2022-10-31T03:47:53;4.90;99.90
16823;DHT22;8528;49.976;11.858;2022-10-31T03:50:21;4.90;99.90
16823;DHT22;8528;49.976;11.858;2022-10-31T03:53:14;4.90;99.90
16823;DHT22;8528;49.976;11.858;2022-10-31T03:55:49;4.90;99.90
16823;DHT22;8528;49.976;11.858;2022-10-31T03:58:27;4.90;99.90
16823;DHT22;8528;49.976;11.858;2022-10-31T04:00:56;5.00;99.90
16823;DHT22;8528;49.976;11.858;2022-10-31T04:03:27;5.00;99.90
16823;DHT22;8528;49.976;11.858;2022-10-31T04:05:59;5.10;99.90
16823;DHT22;8528;49.976;11.858;2022-10-31T04:08:30;5.10;99.90
16823;DHT22;8528;49.976;11.858;2022-10-31T04:11:00;5.00;99.90
16823;DHT22;8528;49.976;11.858;2022-10-31T04:13:31;5.00;99.90
16823;DHT22;8528;49.976;11.858;2022-10-31T04:16:00;5.00;99.90
16823;DHT22;8528;49.976;11.858;2022-10-31T04:18:27;5.00;99.90
16823;DHT22;8528;49.976;11.858;2022-10-31T04:21:05;4.90;99.90
16823;DHT22;8528;49.976;11.858;2022-10-31T04:23:34;4.90;99.90
16823;DHT22;8528;49.976;11.858;2022-10-31T04:26:01;4.80;99.90
16823;DHT22;8528;49.976;11.858;2022-10-31T04:28:28;4.80;99.90
16823;DHT22;8528;49.976;11.858;2022-10-31T04:30:55;4.80;99.90
16823;DHT22;8528;49.976;11.858;2022-10-31T04:33:23;4.70;99.90
16823;DHT22;8528;49.976;11.858;2022-10-31T04:35:50;4.70;99.90
16823;DHT22;8528;49.976;11.858;2022-10-31T04:38:19;4.70;99.90
16823;DHT22;8528;49.976;11.858;2022-10-31T04:40:46;4.70;99.90
16823;DHT22;8528;49.976;11.858;2022-10-31T04:43:13;4.70;99.90
16823;DHT22;8528;49.976;11.858;2022-10-31T04:45:40;4.60;99.90
16823;DHT22;8528;49.976;11.858;2022-10-31T04:48:07;4.70;99.90
16823;DHT22;8528;49.976;11.858;2022-10-31T04:50:34;4.70;99.90
16823;DHT22;8528;49.976;11.858;2022-10-31T04:53:02;4.80;99.90
16823;DHT22;8528;49.976;11.858;2022-10-31T04:55:29;4.70;99.90
16823;DHT22;8528;49.976;11.858;2022-10-31T04:57:56;4.80;99.90
16823;DHT22;8528;49.976;11.858;2022-10-31T05:00:24;4.90;99.90
16823;DHT22;8528;49.976;11.858;2022-10-31T05:02:56;4.90;99.90
16823;DHT22;8528;49.976;11.858;2022-10-31T05:05:26;4.80;99.90
16823;DHT22;8528;49.976;11.858;2022-10-31T05:07:53;4.80;99.90
16823;DHT22;8528;49.976;11.858;2022-10-31T05:10:23;4.80;99.90
16823;DHT22;8528;49.976;11.858;2022-10-31T05:12:55;4.80;99.90
16823;DHT22;8528;49.976;11.858;2022-10-31T05:15:25;4.80;99.90
16823;DHT22;8528;49.976;11.858;2022-10-31T05:17:53;4.80;99.90
16823;DHT22;8528;49.976;11.858;2022-10-31T05:20:22;4.80;99.90
16823;DHT22;8528;49.976;11.858;2022-10-31T05:22:51;4.80;99.90
16823;DHT22;8528;49.976;11.858;2022-10-31T05:25:21;4.90;99.90
16823;DHT22;8528;49.976;11.858;2022-10-31T05:27:50;4.80;99.90
16823;DHT22;8528;49.976;11.858;2022-10-31T05:30:22;4.80;99.90
16823;DHT22;8528;49.976;11.858;2022-10-31T05:32:50;4.80;99.90
16823;DHT22;8528;49.976;11.858;2022-10-31T05:35:21;4.70;99.90
16823;DHT22;8528;49.976;11.858;2022-10-31T05:37:49;4.70;99.90
16823;DHT22;8528;49.976;11.858;2022-10-31T05:40:17;4.80;99.90
16823;DHT22;8528;49.976;11.858;2022-10-31T05:42:45;4.80;99.90
16823;DHT22;8528;49.976;11.858;2022-10-31T05:45:14;4.80;99.90
16823;DHT22;8528;49.976;11.858;2022-10-31T05:47:42;4.80;99.90
16823;DHT22;8528;49.976;11.858;2022-10-31T05:50:09;4.80;99.90
16823;DHT22;8528;49.976;11.858;2022-10-31T05:52:36;4.80;99.90
16823;DHT22;8528;49.976;11.858;2022-10-31T05:55:03;4.90;99.90
16823;DHT22;8528;49.976;11.858;2022-10-31T05:57:32;4.90;99.90
16823;DHT22;8528;49.976;11.858;2022-10-31T06:00:00;4.90;99.90
16823;DHT22;8528;49.976;11.858;2022-10-31T06:02:27;4.90;99.90
16823;DHT22;8528;49.976;11.858;2022-10-31T06:04:58;4.80;99.90
16823;DHT22;8528;49.976;11.858;2022-10-31T06:07:25;4.80;99.90
16823;DHT22;8528;49.976;11.858;2022-10-31T06:09:52;4.80;99.90
16823;DHT22;8528;49.976;11.858;2022-10-31T06:12:19;4.80;99.90
16823;DHT22;8528;49.976;11.858;2022-10-31T06:14:46;4.70;99.90
16823;DHT22;8528;49.976;11.858;2022-10-31T06:17:13;4.70;99.90
16823;DHT22;8528;49.976;11.858;2022-10-31T06:19:40;4.70;99.90
16823;DHT22;8528;49.976;11.858;2022-10-31T06:22:07;4.70;99.90
16823;DHT22;8528;49.976;11.858;2022-10-31T06:24:37;4.80;99.90
16823;DHT22;8528;49.976;11.858;2022-10-31T06:27:07;4.80;99.90
16823;DHT22;8528;49.976;11.858;2022-10-31T06:29:34;4.80;99.90
16823;DHT22;8528;49.976;11.858;2022-10-31T06:32:01;4.90;99.90
16823;DHT22;8528;49.976;11.858;2022-10-31T06:34:28;4.90;99.90
16823;DHT22;8528;49.976;11.858;2022-10-31T06:36:57;5.00;99.90
16823;DHT22;8528;49.976;11.858;2022-10-31T06:39:24;5.10;99.90
16823;DHT22;8528;49.976;11.858;2022-10-31T06:41:53;5.20;99.90
16823;DHT22;8528;49.976;11.858;2022-10-31T06:44:20;5.40;99.90
16823;DHT22;8528;49.976;11.858;2022-10-31T06:46:47;5.40;99.90
16823;DHT22;8528;49.976;11.858;2022-10-31T06:49:14;5.50;99.90
16823;DHT22;8528;49.976;11.858;2022-10-31T06:51:41;5.60;99.90
16823;DHT22;8528;49.976;11.858;2022-10-31T06:54:09;5.70;99.90
16823;DHT22;8528;49.976;11.858;2022-10-31T06:56:36;5.80;99.90
16823;DHT22;8528;49.976;11.858;2022-10-31T06:59:03;5.90;99.90
16823;DHT22;8528;49.976;11.858;2022-10-31T07:01:30;6.00;99.90
16823;DHT22;8528;49.976;11.858;2022-10-31T07:03:57;6.10;99.90
16823;DHT22;8528;49.976;11.858;2022-10-31T07:06:23;6.20;99.90
16823;DHT22;8528;49.976;11.858;2022-10-31T07:08:53;6.40;99.90
16823;DHT22;8528;49.976;11.858;2022-10-31T07:11:20;6.50;99.90
16823;DHT22;8528;49.976;11.858;2022-10-31T07:13:46;6.70;99.90
16823;DHT22;8528;49.976;11.858;2022-10-31T07:16:13;6.90;99.90
16823;DHT22;8528;49.976;11.858;2022-10-31T07:18:40;7.00;99.90
16823;DHT22;8528;49.976;11.858;2022-10-31T07:21:07;7.20;99.90
16823;DHT22;8528;49.976;11.858;2022-10-31T07:23:34;7.30;99.90
16823;DHT22;8528;49.976;11.858;2022-10-31T07:26:01;7.50;99.90
16823;DHT22;8528;49.976;11.858;2022-10-31T07:28:28;7.60;99.90
16823;DHT22;8528;49.976;11.858;2022-10-31T07:30:57;7.80;99.90
16823;DHT22;8528;49.976;11.858;2022-10-31T07:33:26;7.80;99.90
16823;DHT22;8528;49.976;11.858;2022-10-31T07:35:54;7.90;99.90
16823;DHT22;8528;49.976;11.858;2022-10-31T07:38:21;8.10;99.90
16823;DHT22;8528;49.976;11.858;2022-10-31T07:40:52;8.30;99.90
16823;DHT22;8528;49.976;11.858;2022-10-31T07:43:20;8.50;99.90
16823;DHT22;8528;49.976;11.858;2022-10-31T07:45:53;8.60;99.90
16823;DHT22;8528;49.976;11.858;2022-10-31T07:48:21;8.80;99.90
16823;DHT22;8528;49.976;11.858;2022-10-31T07:50:49;9.00;99.90
16823;DHT22;8528;49.976;11.858;2022-10-31T07:53:16;9.10;99.90
16823;DHT22;8528;49.976;11.858;2022-10-31T07:55:43;9.30;99.90
16823;DHT22;8528;49.976;11.858;2022-10-31T07:58:12;9.40;99.90
16823;DHT22;8528;49.976;11.858;2022-10-31T08:00:41;9.50;99.90
16823;DHT22;8528;49.976;11.858;2022-10-31T08:03:12;9.50;99.90
16823;DHT22;8528;49.976;11.858;2022-10-31T08:05:39;9.70;99.90
16823;DHT22;8528;49.976;11.858;2022-10-31T08:08:12;9.80;99.90
16823;DHT22;8528;49.976;11.858;2022-10-31T08:10:39;10.00;99.90
16823;DHT22;8528;49.976;11.858;2022-10-31T08:13:09;10.20;99.90
16823;DHT22;8528;49.976;11.858;2022-10-31T08:15:36;10.40;99.90
16823;DHT22;8528;49.976;11.858;2022-10-31T08:18:06;10.60;99.90
16823;DHT22;8528;49.976;11.858;2022-10-31T08:20:33;10.80;99.90
16823;DHT22;8528;49.976;11.858;2022-10-31T08:23:04;11.00;99.90
16823;DHT22;8528;49.976;11.858;2022-10-31T08:25:33;11.20;99.90
16823;DHT22;8528;49.976;11.858;2022-10-31T08:28:05;11.40;99.90
16823;DHT22;8528;49.976;11.858;2022-10-31T08:30:34;11.60;99.90
16823;DHT22;8528;49.976;11.858;2022-10-31T08:33:23;11.70;99.90
16823;DHT22;8528;49.976;11.858;2022-10-31T08:35:48;11.90;99.90
16823;DHT22;8528;49.976;11.858;2022-10-31T08:38:16;12.10;99.90
16823;DHT22;8528;49.976;11.858;2022-10-31T08:40:43;12.20;99.90
16823;DHT22;8528;49.976;11.858;2022-10-31T08:43:14;12.40;99.90
16823;DHT22;8528;49.976;11.858;2022-10-31T08:45:43;12.70;99.90
16823;DHT22;8528;49.976;11.858;2022-10-31T08:48:12;13.00;99.90
16823;DHT22;8528;49.976;11.858;2022-10-31T08:50:40;13.20;99.90
16823;DHT22;8528;49.976;11.858;2022-10-31T08:53:13;13.40;99.90
16823;DHT22;8528;49.976;11.858;2022-10-31T08:55:41;13.50;99.90
16823;DHT22;8528;49.976;11.858;2022-10-31T08:58:14;13.70;99.90
16823;DHT22;8528;49.976;11.858;2022-10-31T09:00:43;13.90;99.90
16823;DHT22;8528;49.976;11.858;2022-10-31T09:03:21;14.10;99.90
16823;DHT22;8528;49.976;11.858;2022-10-31T09:05:49;14.20;99.90
16823;DHT22;8528;49.976;11.858;2022-10-31T09:08:17;14.40;99.90
16823;DHT22;8528;49.976;11.858;2022-10-31T09:10:44;14.60;99.90
16823;DHT22;8528;49.976;11.858;2022-10-31T09:13:17;14.90;99.90
16823;DHT22;8528;49.976;11.858;2022-10-31T09:15:46;15.10;99.90
16823;DHT22;8528;49.976;11.858;2022-10-31T09:18:19;15.30;99.90
16823;DHT22;8528;49.976;11.858;2022-10-31T09:20:51;15.50;99.90
16823;DHT22;8528;49.976;11.858;2022-10-31T09:23:20;15.70;99.90
16823;DHT22;8528;49.976;11.858;2022-10-31T09:25:49;15.90;99.90
16823;DHT22;8528;49.976;11.858;2022-10-31T09:28:19;16.10;99.90
16823;DHT22;8528;49.976;11.858;2022-10-31T09:30:52;16.30;99.90
16823;DHT22;8528;49.976;11.858;2022-10-31T09:33:19;16.50;99.90
16823;DHT22;8528;49.976;11.858;2022-10-31T09:35:46;16.70;99.90
16823;DHT22;8528;49.976;11.858;2022-10-31T09:38:20;16.90;99.90
16823;DHT22;8528;49.976;11.858;2022-10-31T09:40:49;17.10;99.90
16823;DHT22;8528;49.976;11.858;2022-10-31T09:45:50;17.40;99.90
16823;DHT22;8528;49.976;11.858;2022-10-31T09:51:25;17.80;99.90
16823;DHT22;8528;49.976;11.858;2022-10-31T09:54:12;18.00;99.90
16823;DHT22;8528;49.976;11.858;2022-10-31T09:56:42;18.10;99.90
16823;DHT22;8528;49.976;11.858;2022-10-31T09:59:20;18.30;99.90
16823;DHT22;8528;49.976;11.858;2022-10-31T10:01:58;18.40;99.90
16823;DHT22;8528;49.976;11.858;2022-10-31T10:04:58;18.50;99.90
16823;DHT22;8528;49.976;11.858;2022-10-31T10:10:27;18.80;99.90
16823;DHT22;8528;49.976;11.858;2022-10-31T10:16:03;19.00;99.90
16823;DHT22;8528;49.976;11.858;2022-10-31T10:26:36;19.20;99.90
16823;DHT22;8528;49.976;11.858;2022-10-31T10:29:23;19.20;99.90
16823;DHT22;8528;49.976;11.858;2022-10-31T10:31:53;19.30;99.90
16823;DHT22;8528;49.976;11.858;2022-10-31T10:34:34;19.40;99.90
16823;DHT22;8528;49.976;11.858;2022-10-31T10:37:03;19.40;99.90
16823;DHT22;8528;49.976;11.858;2022-10-31T10:39:40;19.40;99.90
16823;DHT22;8528;49.976;11.858;2022-10-31T10:42:11;19.60;99.90
16823;DHT22;8528;49.976;11.858;2022-10-31T10:45:14;19.80;99.90
16823;DHT22;8528;49.976;11.858;2022-10-31T10:48:18;19.80;99.90
16823;DHT22;8528;49.976;11.858;2022-10-31T10:50:48;19.80;99.90
16823;DHT22;8528;49.976;11.858;2022-10-31T10:56:40;19.80;99.90
16823;DHT22;8528;49.976;11.858;2022-10-31T10:59:30;19.90;99.90
16823;DHT22;8528;49.976;11.858;2022-10-31T11:01:58;20.10;99.90
16823;DHT22;8528;49.976;11.858;2022-10-31T11:04:33;20.00;99.90
16823;DHT22;8528;49.976;11.858;2022-10-31T11:07:07;20.10;99.90
16823;DHT22;8528;49.976;11.858;2022-10-31T11:09:36;20.10;99.90
16823;DHT22;8528;49.976;11.858;2022-10-31T11:12:16;20.20;99.90
16823;DHT22;8528;49.976;11.858;2022-10-31T11:14:53;20.10;99.90
16823;DHT22;8528;49.976;11.858;2022-10-31T11:17:29;20.20;99.90
16823;DHT22;8528;49.976;11.858;2022-10-31T11:20:02;20.20;99.90
16823;DHT22;8528;49.976;11.858;2022-10-31T11:22:33;20.30;99.90
16823;DHT22;8528;49.976;11.858;2022-10-31T11:24:59;20.40;99.90
16823;DHT22;8528;49.976;11.858;2022-10-31T11:27:26;20.40;99.90
16823;DHT22;8528;49.976;11.858;2022-10-31T11:30:04;20.40;99.90
16823;DHT22;8528;49.976;11.858;2022-10-31T11:32:31;20.50;99.90
16823;DHT22;8528;49.976;11.858;2022-10-31T11:35:09;20.50;99.90
16823;DHT22;8528;49.976;11.858;2022-10-31T11:37:42;20.70;99.90
16823;DHT22;8528;49.976;11.858;2022-10-31T11:40:25;20.70;99.90
16823;DHT22;8528;49.976;11.858;2022-10-31T11:42:55;20.90;99.90
16823;DHT22;8528;49.976;11.858;2022-10-31T11:47:51;20.80;99.90
16823;DHT22;8528;49.976;11.858;2022-10-31T11:50:40;20.90;99.90
16823;DHT22;8528;49.976;11.858;2022-10-31T11:53:16;21.10;99.90
16823;DHT22;8528;49.976;11.858;2022-10-31T11:55:45;21.00;99.90
16823;DHT22;8528;49.976;11.858;2022-10-31T11:58:23;21.10;99.90
16823;DHT22;8528;49.976;11.858;2022-10-31T12:00:55;21.20;99.90
16823;DHT22;8528;49.976;11.858;2022-10-31T12:06:02;21.30;99.90
16823;DHT22;8528;49.976;11.858;2022-10-31T12:08:32;21.30;99.90
16823;DHT22;8528;49.976;11.858;2022-10-31T12:13:34;21.10;99.90
16823;DHT22;8528;49.976;11.858;2022-10-31T12:16:30;21.10;99.90
16823;DHT22;8528;49.976;11.858;2022-10-31T12:19:04;21.10;99.90
16823;DHT22;8528;49.976;11.858;2022-10-31T12:29:55;21.20;99.90
16823;DHT22;8528;49.976;11.858;2022-10-31T12:33:01;21.10;99.90
16823;DHT22;8528;49.976;11.858;2022-10-31T12:35:51;21.20;99.90
16823;DHT22;8528;49.976;11.858;2022-10-31T12:49:46;21.00;99.90
16823;DHT22;8528;49.976;11.858;2022-10-31T13:01:09;20.50;99.90
16823;DHT22;8528;49.976;11.858;2022-10-31T13:04:09;20.60;99.90
16823;DHT22;8528;49.976;11.858;2022-10-31T13:06:47;20.60;99.90
16823;DHT22;8528;49.976;11.858;2022-10-31T13:09:25;20.60;99.90
16823;DHT22;8528;49.976;11.858;2022-10-31T13:12:02;20.60;99.90
16823;DHT22;8528;49.976;11.858;2022-10-31T13:14:41;20.70;99.90
16823;DHT22;8528;49.976;11.858;2022-10-31T13:17:26;20.60;99.90
16823;DHT22;8528;49.976;11.858;2022-10-31T13:20:15;20.60;99.90
16823;DHT22;8528;49.976;11.858;2022-10-31T13:22:46;20.60;99.90
16823;DHT22;8528;49.976;11.858;2022-10-31T13:25:33;20.50;99.90
16823;DHT22;8528;49.976;11.858;2022-10-31T13:31:16;20.50;99.90
16823;DHT22;8528;49.976;11.858;2022-10-31T13:33:48;20.50;99.90
16823;DHT22;8528;49.976;11.858;2022-10-31T13:44:26;20.30;99.90
16823;DHT22;8528;49.976;11.858;2022-10-31T13:46:56;20.20;99.90
16823;DHT22;8528;49.976;11.858;2022-10-31T13:52:32;20.00;99.90
16823;DHT22;8528;49.976;11.858;2022-10-31T13:54:59;19.80;99.90
16823;DHT22;8528;49.976;11.858;2022-10-31T13:57:33;19.70;99.90
16823;DHT22;8528;49.976;11.858;2022-10-31T14:00:12;19.60;99.90
16823;DHT22;8528;49.976;11.858;2022-10-31T14:02:50;19.50;99.90
16823;DHT22;8528;49.976;11.858;2022-10-31T14:05:23;19.40;99.90
16823;DHT22;8528;49.976;11.858;2022-10-31T14:07:55;19.30;99.90
16823;DHT22;8528;49.976;11.858;2022-10-31T14:10:32;19.30;99.90
16823;DHT22;8528;49.976;11.858;2022-10-31T14:13:13;19.20;99.90
16823;DHT22;8528;49.976;11.858;2022-10-31T14:15:52;19.10;99.90
16823;DHT22;8528;49.976;11.858;2022-10-31T14:18:23;19.00;99.90
16823;DHT22;8528;49.976;11.858;2022-10-31T14:20:51;18.90;99.90
16823;DHT22;8528;49.976;11.858;2022-10-31T14:31:44;18.40;99.90
16823;DHT22;8528;49.976;11.858;2022-10-31T14:45:47;17.90;99.90
16823;DHT22;8528;49.976;11.858;2022-10-31T14:51:22;17.60;99.90
16823;DHT22;8528;49.976;11.858;2022-10-31T14:53:52;17.50;99.90
16823;DHT22;8528;49.976;11.858;2022-10-31T14:56:33;17.30;99.90
16823;DHT22;8528;49.976;11.858;2022-10-31T14:59:03;17.20;99.90
16823;DHT22;8528;49.976;11.858;2022-10-31T15:01:35;17.10;99.90
16823;DHT22;8528;49.976;11.858;2022-10-31T15:04:16;17.00;99.90
16823;DHT22;8528;49.976;11.858;2022-10-31T15:09:34;16.70;99.90
16823;DHT22;8528;49.976;11.858;2022-10-31T15:12:22;16.50;99.90
16823;DHT22;8528;49.976;11.858;2022-10-31T15:14:49;16.40;99.90
16823;DHT22;8528;49.976;11.858;2022-10-31T15:17:17;16.30;99.90
16823;DHT22;8528;49.976;11.858;2022-10-31T15:19:44;16.20;99.90
16823;DHT22;8528;49.976;11.858;2022-10-31T15:22:18;16.10;99.90
16823;DHT22;8528;49.976;11.858;2022-10-31T15:24:45;16.00;99.90
16823;DHT22;8528;49.976;11.858;2022-10-31T15:27:17;15.90;99.90
16823;DHT22;8528;49.976;11.858;2022-10-31T15:29:49;15.80;99.90
16823;DHT22;8528;49.976;11.858;2022-10-31T15:32:21;15.70;99.90
16823;DHT22;8528;49.976;11.858;2022-10-31T15:34:51;15.50;99.90
16823;DHT22;8528;49.976;11.858;2022-10-31T15:37:23;15.40;99.90
16823;DHT22;8528;49.976;11.858;2022-10-31T15:40:15;15.20;99.90
16823;DHT22;8528;49.976;11.858;2022-10-31T15:42:44;15.00;99.90
16823;DHT22;8528;49.976;11.858;2022-10-31T15:47:45;14.70;99.90
16823;DHT22;8528;49.976;11.858;2022-10-31T15:50:23;14.60;99.90
16823;DHT22;8528;49.976;11.858;2022-10-31T15:52:53;14.40;99.90
16823;DHT22;8528;49.976;11.858;2022-10-31T15:55:29;14.30;99.90
16823;DHT22;8528;49.976;11.858;2022-10-31T15:58:02;14.10;99.90
16823;DHT22;8528;49.976;11.858;2022-10-31T16:00:34;14.10;99.90
16823;DHT22;8528;49.976;11.858;2022-10-31T16:05:52;13.90;99.90
16823;DHT22;8528;49.976;11.858;2022-10-31T16:10:56;13.70;99.90
16823;DHT22;8528;49.976;11.858;2022-10-31T16:13:30;13.60;99.90
16823;DHT22;8528;49.976;11.858;2022-10-31T16:16:00;13.60;99.90
16823;DHT22;8528;49.976;11.858;2022-10-31T16:18:49;13.50;99.90
16823;DHT22;8528;49.976;11.858;2022-10-31T16:21:26;13.30;99.90
16823;DHT22;8528;49.976;11.858;2022-10-31T16:23:59;13.20;99.90
16823;DHT22;8528;49.976;11.858;2022-10-31T16:26:31;13.20;99.90
16823;DHT22;8528;49.976;11.858;2022-10-31T16:28:58;13.10;99.90
16823;DHT22;8528;49.976;11.858;2022-10-31T16:31:37;13.10;99.90
16823;DHT22;8528;49.976;11.858;2022-10-31T16:34:12;13.00;99.90
16823;DHT22;8528;49.976;11.858;2022-10-31T16:36:39;13.00;99.90
16823;DHT22;8528;49.976;11.858;2022-10-31T16:39:07;12.90;99.90
16823;DHT22;8528;49.976;11.858;2022-10-31T16:41:39;12.80;99.90
16823;DHT22;8528;49.976;11.858;2022-10-31T16:44:26;12.70;99.90
16823;DHT22;8528;49.976;11.858;2022-10-31T16:47:12;12.60;99.90
16823;DHT22;8528;49.976;11.858;2022-10-31T16:49:40;12.50;99.90
16823;DHT22;8528;49.976;11.858;2022-10-31T16:52:08;12.40;99.90
16823;DHT22;8528;49.976;11.858;2022-10-31T16:54:35;12.40;99.90
16823;DHT22;8528;49.976;11.858;2022-10-31T16:57:03;12.30;99.90
16823;DHT22;8528;49.976;11.858;2022-10-31T16:59:32;12.20;99.90
16823;DHT22;8528;49.976;11.858;2022-10-31T17:02:01;12.10;99.90
16823;DHT22;8528;49.976;11.858;2022-10-31T17:04:29;12.10;99.90
16823;DHT22;8528;49.976;11.858;2022-10-31T17:06:56;12.00;99.90
16823;DHT22;8528;49.976;11.858;2022-10-31T17:09:22;12.00;99.90
16823;DHT22;8528;49.976;11.858;2022-10-31T17:11:51;11.90;99.90
16823;DHT22;8528;49.976;11.858;2022-10-31T17:14:18;11.80;99.90
16823;DHT22;8528;49.976;11.858;2022-10-31T17:16:45;11.70;99.90
16823;DHT22;8528;49.976;11.858;2022-10-31T17:19:15;11.60;99.90
16823;DHT22;8528;49.976;11.858;2022-10-31T17:21:43;11.60;99.90
16823;DHT22;8528;49.976;11.858;2022-10-31T17:24:13;11.50;99.90
16823;DHT22;8528;49.976;11.858;2022-10-31T17:26:41;11.50;99.90
16823;DHT22;8528;49.976;11.858;2022-10-31T17:29:10;11.50;99.90
16823;DHT22;8528;49.976;11.858;2022-10-31T17:31:37;11.40;99.90
16823;DHT22;8528;49.976;11.858;2022-10-31T17:34:05;11.40;99.90
16823;DHT22;8528;49.976;11.858;2022-10-31T17:36:33;11.30;99.90
16823;DHT22;8528;49.976;11.858;2022-10-31T17:39:00;11.30;99.90
16823;DHT22;8528;49.976;11.858;2022-10-31T17:41:27;11.20;99.90
16823;DHT22;8528;49.976;11.858;2022-10-31T17:43:56;11.20;99.90
16823;DHT22;8528;49.976;11.858;2022-10-31T17:46:24;11.10;99.90
16823;DHT22;8528;49.976;11.858;2022-10-31T17:48:50;11.10;99.90
16823;DHT22;8528;49.976;11.858;2022-10-31T17:51:17;11.00;99.90
16823;DHT22;8528;49.976;11.858;2022-10-31T17:53:44;11.00;99.90
16823;DHT22;8528;49.976;11.858;2022-10-31T17:56:11;10.90;99.90
16823;DHT22;8528;49.976;11.858;2022-10-31T17:58:38;10.90;99.90
16823;DHT22;8528;49.976;11.858;2022-10-31T18:01:10;10.90;99.90
16823;DHT22;8528;49.976;11.858;2022-10-31T18:03:38;10.80;99.90
16823;DHT22;8528;49.976;11.858;2022-10-31T18:06:06;10.80;99.90
16823;DHT22;8528;49.976;11.858;2022-10-31T18:08:35;10.80;99.90
16823;DHT22;8528;49.976;11.858;2022-10-31T18:11:10;10.80;99.90
16823;DHT22;8528;49.976;11.858;2022-10-31T18:13:37;10.80;99.90
16823;DHT22;8528;49.976;11.858;2022-10-31T18:16:16;10.70;99.90